sensor_id;sensor_type;location;lat;lon;timestamp;P1;durP1;ratioP1;P2;durP2;ratioP2
74926;SDS011;63488;48.092;-1.640;2023-05-07T00:01:25;12.85;;;3.38;;
74926;SDS011;63488;48.092;-1.640;2023-05-07T00:03:50;8.65;;;3.28;;
74926;SDS011;63488;48.092;-1.640;2023-05-07T00:06:16;7.10;;;3.17;;
74926;SDS011;63488;48.092;-1.640;2023-05-07T00:08:42;7.38;;;2.95;;
74926;SDS011;63488;48.092;-1.640;2023-05-07T00:11:07;9.43;;;3.03;;
74926;SDS011;63488;48.092;-1.640;2023-05-07T00:13:33;10.75;;;2.78;;
74926;SDS011;63488;48.092;-1.640;2023-05-07T00:16:01;8.63;;;3.15;;
74926;SDS011;63488;48.092;-1.640;2023-05-07T00:18:26;9.85;;;3.50;;
74926;SDS011;63488;48.092;-1.640;2023-05-07T00:20:51;9.73;;;3.03;;
74926;SDS011;63488;48.092;-1.640;2023-05-07T00:23:17;13.80;;;3.28;;
74926;SDS011;63488;48.092;-1.640;2023-05-07T00:25:42;9.80;;;2.83;;
74926;SDS011;63488;48.092;-1.640;2023-05-07T00:28:08;7.72;;;2.70;;
74926;SDS011;63488;48.092;-1.640;2023-05-07T00:30:33;9.18;;;2.80;;
74926;SDS011;63488;48.092;-1.640;2023-05-07T00:32:58;11.10;;;2.88;;
74926;SDS011;63488;48.092;-1.640;2023-05-07T00:35:24;8.55;;;2.70;;
74926;SDS011;63488;48.092;-1.640;2023-05-07T00:37:49;9.80;;;3.10;;
74926;SDS011;63488;48.092;-1.640;2023-05-07T00:40:14;10.10;;;3.13;;
74926;SDS011;63488;48.092;-1.640;2023-05-07T00:42:40;12.40;;;3.08;;
74926;SDS011;63488;48.092;-1.640;2023-05-07T00:45:05;10.45;;;2.97;;
74926;SDS011;63488;48.092;-1.640;2023-05-07T00:47:32;10.65;;;3.17;;
74926;SDS011;63488;48.092;-1.640;2023-05-07T00:49:58;10.07;;;2.70;;
74926;SDS011;63488;48.092;-1.640;2023-05-07T00:52:24;8.05;;;3.03;;
74926;SDS011;63488;48.092;-1.640;2023-05-07T00:54:50;13.05;;;2.65;;
74926;SDS011;63488;48.092;-1.640;2023-05-07T00:57:16;14.35;;;3.13;;
74926;SDS011;63488;48.092;-1.640;2023-05-07T00:59:42;8.00;;;2.75;;
74926;SDS011;63488;48.092;-1.640;2023-05-07T01:02:07;8.63;;;2.95;;
74926;SDS011;63488;48.092;-1.640;2023-05-07T01:04:32;8.80;;;3.05;;
74926;SDS011;63488;48.092;-1.640;2023-05-07T01:06:58;10.70;;;3.47;;
74926;SDS011;63488;48.092;-1.640;2023-05-07T01:09:25;6.78;;;3.35;;
74926;SDS011;63488;48.092;-1.640;2023-05-07T01:11:51;9.05;;;3.10;;
74926;SDS011;63488;48.092;-1.640;2023-05-07T01:14:17;9.32;;;2.88;;
74926;SDS011;63488;48.092;-1.640;2023-05-07T01:16:43;8.05;;;3.33;;
74926;SDS011;63488;48.092;-1.640;2023-05-07T01:19:09;9.75;;;3.05;;
74926;SDS011;63488;48.092;-1.640;2023-05-07T01:21:36;12.23;;;3.33;;
74926;SDS011;63488;48.092;-1.640;2023-05-07T01:24:02;7.70;;;2.75;;
74926;SDS011;63488;48.092;-1.640;2023-05-07T01:26:28;10.90;;;2.90;;
74926;SDS011;63488;48.092;-1.640;2023-05-07T01:28:53;9.63;;;2.97;;
74926;SDS011;63488;48.092;-1.640;2023-05-07T01:31:18;8.43;;;2.65;;
74926;SDS011;63488;48.092;-1.640;2023-05-07T01:33:44;13.43;;;2.97;;
74926;SDS011;63488;48.092;-1.640;2023-05-07T01:36:11;11.68;;;3.00;;
74926;SDS011;63488;48.092;-1.640;2023-05-07T01:38:37;7.88;;;2.70;;
74926;SDS011;63488;48.092;-1.640;2023-05-07T01:41:02;10.80;;;3.00;;
74926;SDS011;63488;48.092;-1.640;2023-05-07T01:43:28;7.57;;;2.53;;
74926;SDS011;63488;48.092;-1.640;2023-05-07T01:45:54;8.20;;;2.60;;
74926;SDS011;63488;48.092;-1.640;2023-05-07T01:48:20;11.18;;;3.17;;
74926;SDS011;63488;48.092;-1.640;2023-05-07T01:50:45;10.63;;;2.92;;
74926;SDS011;63488;48.092;-1.640;2023-05-07T01:53:11;7.95;;;2.58;;
74926;SDS011;63488;48.092;-1.640;2023-05-07T01:55:36;9.68;;;2.80;;
74926;SDS011;63488;48.092;-1.640;2023-05-07T01:58:02;11.00;;;2.65;;
74926;SDS011;63488;48.092;-1.640;2023-05-07T02:00:27;9.00;;;2.88;;
74926;SDS011;63488;48.092;-1.640;2023-05-07T02:02:53;8.55;;;3.05;;
74926;SDS011;63488;48.092;-1.640;2023-05-07T02:05:19;10.23;;;3.10;;
74926;SDS011;63488;48.092;-1.640;2023-05-07T02:07:44;8.60;;;3.05;;
74926;SDS011;63488;48.092;-1.640;2023-05-07T02:10:09;7.53;;;2.63;;
74926;SDS011;63488;48.092;-1.640;2023-05-07T02:12:35;10.05;;;2.83;;
74926;SDS011;63488;48.092;-1.640;2023-05-07T02:15:00;8.25;;;2.55;;
74926;SDS011;63488;48.092;-1.640;2023-05-07T02:17:25;8.60;;;2.40;;
74926;SDS011;63488;48.092;-1.640;2023-05-07T02:19:51;9.27;;;2.53;;
74926;SDS011;63488;48.092;-1.640;2023-05-07T02:22:16;12.13;;;3.00;;
74926;SDS011;63488;48.092;-1.640;2023-05-07T02:24:41;8.82;;;2.70;;
74926;SDS011;63488;48.092;-1.640;2023-05-07T02:27:07;8.52;;;3.10;;
74926;SDS011;63488;48.092;-1.640;2023-05-07T02:29:32;7.38;;;2.67;;
74926;SDS011;63488;48.092;-1.640;2023-05-07T02:31:57;12.48;;;3.28;;
74926;SDS011;63488;48.092;-1.640;2023-05-07T02:34:23;8.65;;;3.10;;
74926;SDS011;63488;48.092;-1.640;2023-05-07T02:36:48;10.70;;;3.10;;
74926;SDS011;63488;48.092;-1.640;2023-05-07T02:39:13;8.13;;;2.58;;
74926;SDS011;63488;48.092;-1.640;2023-05-07T02:41:40;8.40;;;2.65;;
74926;SDS011;63488;48.092;-1.640;2023-05-07T02:44:05;9.40;;;2.83;;
74926;SDS011;63488;48.092;-1.640;2023-05-07T02:46:31;8.77;;;2.60;;
74926;SDS011;63488;48.092;-1.640;2023-05-07T02:48:56;11.25;;;2.83;;
74926;SDS011;63488;48.092;-1.640;2023-05-07T02:51:22;10.40;;;2.95;;
74926;SDS011;63488;48.092;-1.640;2023-05-07T02:53:47;10.32;;;2.97;;
74926;SDS011;63488;48.092;-1.640;2023-05-07T02:56:13;12.18;;;3.42;;
74926;SDS011;63488;48.092;-1.640;2023-05-07T02:58:38;8.55;;;2.90;;
74926;SDS011;63488;48.092;-1.640;2023-05-07T03:01:09;11.48;;;3.08;;
74926;SDS011;63488;48.092;-1.640;2023-05-07T03:03:35;8.57;;;3.03;;
74926;SDS011;63488;48.092;-1.640;2023-05-07T03:06:00;8.10;;;2.72;;
74926;SDS011;63488;48.092;-1.640;2023-05-07T03:08:26;11.25;;;3.17;;
74926;SDS011;63488;48.092;-1.640;2023-05-07T03:10:51;9.10;;;2.53;;
74926;SDS011;63488;48.092;-1.640;2023-05-07T03:13:16;11.90;;;3.40;;
74926;SDS011;63488;48.092;-1.640;2023-05-07T03:15:42;8.25;;;2.72;;
74926;SDS011;63488;48.092;-1.640;2023-05-07T03:18:07;10.00;;;3.10;;
74926;SDS011;63488;48.092;-1.640;2023-05-07T03:20:33;11.38;;;3.20;;
74926;SDS011;63488;48.092;-1.640;2023-05-07T03:22:58;15.30;;;3.28;;
74926;SDS011;63488;48.092;-1.640;2023-05-07T03:25:23;9.77;;;3.20;;
74926;SDS011;63488;48.092;-1.640;2023-05-07T03:27:49;9.80;;;3.20;;
74926;SDS011;63488;48.092;-1.640;2023-05-07T03:30:14;8.32;;;2.90;;
74926;SDS011;63488;48.092;-1.640;2023-05-07T03:32:39;8.88;;;3.17;;
74926;SDS011;63488;48.092;-1.640;2023-05-07T03:35:05;11.75;;;3.58;;
74926;SDS011;63488;48.092;-1.640;2023-05-07T03:37:30;10.32;;;2.75;;
74926;SDS011;63488;48.092;-1.640;2023-05-07T03:39:56;9.80;;;3.17;;
74926;SDS011;63488;48.092;-1.640;2023-05-07T03:42:21;10.15;;;3.00;;
74926;SDS011;63488;48.092;-1.640;2023-05-07T03:44:46;8.20;;;3.08;;
74926;SDS011;63488;48.092;-1.640;2023-05-07T03:47:12;6.43;;;2.67;;
74926;SDS011;63488;48.092;-1.640;2023-05-07T03:49:38;9.70;;;3.30;;
74926;SDS011;63488;48.092;-1.640;2023-05-07T03:52:04;11.25;;;2.85;;
74926;SDS011;63488;48.092;-1.640;2023-05-07T03:54:30;8.55;;;3.03;;
74926;SDS011;63488;48.092;-1.640;2023-05-07T03:56:55;9.30;;;3.45;;
74926;SDS011;63488;48.092;-1.640;2023-05-07T03:59:20;11.20;;;3.55;;
74926;SDS011;63488;48.092;-1.640;2023-05-07T04:01:45;10.18;;;3.33;;
74926;SDS011;63488;48.092;-1.640;2023-05-07T04:04:11;11.25;;;3.30;;
74926;SDS011;63488;48.092;-1.640;2023-05-07T04:06:37;7.07;;;2.85;;
74926;SDS011;63488;48.092;-1.640;2023-05-07T04:09:02;6.97;;;2.83;;
74926;SDS011;63488;48.092;-1.640;2023-05-07T04:11:27;8.00;;;2.80;;
74926;SDS011;63488;48.092;-1.640;2023-05-07T04:13:53;6.68;;;2.50;;
74926;SDS011;63488;48.092;-1.640;2023-05-07T04:16:18;8.13;;;2.70;;
74926;SDS011;63488;48.092;-1.640;2023-05-07T04:18:43;9.82;;;3.22;;
74926;SDS011;63488;48.092;-1.640;2023-05-07T04:21:19;8.80;;;2.80;;
74926;SDS011;63488;48.092;-1.640;2023-05-07T04:23:45;7.57;;;2.60;;
74926;SDS011;63488;48.092;-1.640;2023-05-07T04:26:10;6.55;;;2.70;;
74926;SDS011;63488;48.092;-1.640;2023-05-07T04:28:36;6.82;;;2.72;;
74926;SDS011;63488;48.092;-1.640;2023-05-07T04:31:01;8.25;;;2.65;;
74926;SDS011;63488;48.092;-1.640;2023-05-07T04:33:26;6.95;;;2.53;;
74926;SDS011;63488;48.092;-1.640;2023-05-07T04:35:52;6.82;;;2.75;;
74926;SDS011;63488;48.092;-1.640;2023-05-07T04:38:17;9.90;;;2.67;;
74926;SDS011;63488;48.092;-1.640;2023-05-07T04:40:43;6.10;;;2.03;;
74926;SDS011;63488;48.092;-1.640;2023-05-07T04:43:09;4.55;;;2.28;;
74926;SDS011;63488;48.092;-1.640;2023-05-07T04:45:35;6.65;;;2.30;;
74926;SDS011;63488;48.092;-1.640;2023-05-07T04:48:00;5.55;;;2.22;;
74926;SDS011;63488;48.092;-1.640;2023-05-07T04:50:26;5.30;;;2.25;;
74926;SDS011;63488;48.092;-1.640;2023-05-07T04:52:51;6.07;;;2.47;;
74926;SDS011;63488;48.092;-1.640;2023-05-07T04:55:17;8.32;;;2.50;;
74926;SDS011;63488;48.092;-1.640;2023-05-07T04:57:42;6.65;;;2.45;;
74926;SDS011;63488;48.092;-1.640;2023-05-07T05:00:08;8.52;;;2.50;;
74926;SDS011;63488;48.092;-1.640;2023-05-07T05:02:36;7.05;;;2.50;;
74926;SDS011;63488;48.092;-1.640;2023-05-07T05:05:02;9.32;;;2.75;;
74926;SDS011;63488;48.092;-1.640;2023-05-07T05:07:27;8.90;;;2.50;;
74926;SDS011;63488;48.092;-1.640;2023-05-07T05:09:53;5.03;;;2.40;;
74926;SDS011;63488;48.092;-1.640;2023-05-07T05:12:18;6.95;;;2.38;;
74926;SDS011;63488;48.092;-1.640;2023-05-07T05:14:44;4.13;;;2.60;;
74926;SDS011;63488;48.092;-1.640;2023-05-07T05:17:09;5.35;;;2.25;;
74926;SDS011;63488;48.092;-1.640;2023-05-07T05:19:35;9.13;;;2.25;;
74926;SDS011;63488;48.092;-1.640;2023-05-07T05:22:00;6.68;;;2.60;;
74926;SDS011;63488;48.092;-1.640;2023-05-07T05:24:26;6.43;;;2.50;;
74926;SDS011;63488;48.092;-1.640;2023-05-07T05:26:52;4.50;;;2.40;;
74926;SDS011;63488;48.092;-1.640;2023-05-07T05:29:18;7.20;;;2.42;;
74926;SDS011;63488;48.092;-1.640;2023-05-07T05:31:43;6.18;;;2.35;;
74926;SDS011;63488;48.092;-1.640;2023-05-07T05:34:08;7.53;;;2.63;;
74926;SDS011;63488;48.092;-1.640;2023-05-07T05:36:34;5.45;;;2.25;;
74926;SDS011;63488;48.092;-1.640;2023-05-07T05:38:59;4.53;;;2.10;;
74926;SDS011;63488;48.092;-1.640;2023-05-07T05:41:24;3.58;;;2.03;;
74926;SDS011;63488;48.092;-1.640;2023-05-07T05:43:50;5.65;;;2.30;;
74926;SDS011;63488;48.092;-1.640;2023-05-07T05:46:15;3.90;;;2.40;;
74926;SDS011;63488;48.092;-1.640;2023-05-07T05:48:40;3.92;;;2.28;;
74926;SDS011;63488;48.092;-1.640;2023-05-07T05:51:06;6.55;;;2.40;;
74926;SDS011;63488;48.092;-1.640;2023-05-07T05:53:31;5.00;;;2.60;;
74926;SDS011;63488;48.092;-1.640;2023-05-07T05:55:56;3.95;;;2.58;;
74926;SDS011;63488;48.092;-1.640;2023-05-07T05:58:22;4.10;;;2.20;;
74926;SDS011;63488;48.092;-1.640;2023-05-07T06:00:47;6.35;;;2.40;;
74926;SDS011;63488;48.092;-1.640;2023-05-07T06:03:13;5.45;;;2.65;;
74926;SDS011;63488;48.092;-1.640;2023-05-07T06:05:38;5.47;;;2.42;;
74926;SDS011;63488;48.092;-1.640;2023-05-07T06:08:04;5.63;;;2.40;;
74926;SDS011;63488;48.092;-1.640;2023-05-07T06:10:29;4.90;;;2.92;;
74926;SDS011;63488;48.092;-1.640;2023-05-07T06:12:55;5.65;;;2.65;;
74926;SDS011;63488;48.092;-1.640;2023-05-07T06:15:22;6.35;;;2.63;;
74926;SDS011;63488;48.092;-1.640;2023-05-07T06:17:47;4.55;;;2.80;;
74926;SDS011;63488;48.092;-1.640;2023-05-07T06:20:14;4.13;;;2.45;;
74926;SDS011;63488;48.092;-1.640;2023-05-07T06:22:39;7.78;;;3.05;;
74926;SDS011;63488;48.092;-1.640;2023-05-07T06:25:04;4.78;;;2.65;;
74926;SDS011;63488;48.092;-1.640;2023-05-07T06:27:30;6.50;;;2.95;;
74926;SDS011;63488;48.092;-1.640;2023-05-07T06:29:55;4.78;;;2.70;;
74926;SDS011;63488;48.092;-1.640;2023-05-07T06:32:20;7.65;;;2.83;;
74926;SDS011;63488;48.092;-1.640;2023-05-07T06:34:46;6.30;;;2.60;;
74926;SDS011;63488;48.092;-1.640;2023-05-07T06:37:11;8.25;;;3.10;;
74926;SDS011;63488;48.092;-1.640;2023-05-07T06:39:36;4.53;;;2.90;;
74926;SDS011;63488;48.092;-1.640;2023-05-07T06:42:02;3.83;;;2.60;;
74926;SDS011;63488;48.092;-1.640;2023-05-07T06:44:29;9.32;;;3.28;;
74926;SDS011;63488;48.092;-1.640;2023-05-07T06:46:54;5.18;;;2.85;;
74926;SDS011;63488;48.092;-1.640;2023-05-07T06:49:20;3.33;;;2.70;;
74926;SDS011;63488;48.092;-1.640;2023-05-07T06:51:45;6.63;;;3.15;;
74926;SDS011;63488;48.092;-1.640;2023-05-07T06:54:10;6.22;;;3.17;;
74926;SDS011;63488;48.092;-1.640;2023-05-07T06:56:36;4.85;;;2.72;;
74926;SDS011;63488;48.092;-1.640;2023-05-07T06:59:02;4.82;;;2.83;;
74926;SDS011;63488;48.092;-1.640;2023-05-07T07:01:27;5.63;;;3.10;;
74926;SDS011;63488;48.092;-1.640;2023-05-07T07:03:53;4.65;;;2.65;;
74926;SDS011;63488;48.092;-1.640;2023-05-07T07:06:18;3.83;;;2.60;;
74926;SDS011;63488;48.092;-1.640;2023-05-07T07:08:43;6.80;;;2.95;;
74926;SDS011;63488;48.092;-1.640;2023-05-07T07:11:09;4.55;;;2.60;;
74926;SDS011;63488;48.092;-1.640;2023-05-07T07:13:35;6.38;;;2.72;;
74926;SDS011;63488;48.092;-1.640;2023-05-07T07:16:00;5.90;;;2.80;;
74926;SDS011;63488;48.092;-1.640;2023-05-07T07:18:25;4.90;;;2.80;;
74926;SDS011;63488;48.092;-1.640;2023-05-07T07:20:51;4.60;;;2.83;;
74926;SDS011;63488;48.092;-1.640;2023-05-07T07:23:16;2.60;;;1.65;;
74926;SDS011;63488;48.092;-1.640;2023-05-07T07:25:41;1.65;;;1.55;;
74926;SDS011;63488;48.092;-1.640;2023-05-07T07:28:07;3.47;;;1.90;;
74926;SDS011;63488;48.092;-1.640;2023-05-07T07:30:32;2.95;;;2.08;;
74926;SDS011;63488;48.092;-1.640;2023-05-07T07:32:58;3.05;;;2.35;;
74926;SDS011;63488;48.092;-1.640;2023-05-07T07:35:30;3.85;;;2.65;;
74926;SDS011;63488;48.092;-1.640;2023-05-07T07:37:56;4.32;;;3.03;;
74926;SDS011;63488;48.092;-1.640;2023-05-07T07:40:21;5.35;;;3.22;;
74926;SDS011;63488;48.092;-1.640;2023-05-07T07:42:47;5.10;;;3.67;;
74926;SDS011;63488;48.092;-1.640;2023-05-07T07:45:12;5.55;;;3.78;;
74926;SDS011;63488;48.092;-1.640;2023-05-07T07:47:38;6.97;;;3.75;;
74926;SDS011;63488;48.092;-1.640;2023-05-07T07:50:03;5.95;;;3.50;;
74926;SDS011;63488;48.092;-1.640;2023-05-07T07:52:28;7.72;;;3.97;;
74926;SDS011;63488;48.092;-1.640;2023-05-07T07:54:54;6.07;;;4.38;;
74926;SDS011;63488;48.092;-1.640;2023-05-07T07:57:20;5.68;;;3.97;;
74926;SDS011;63488;48.092;-1.640;2023-05-07T07:59:45;7.03;;;4.70;;
74926;SDS011;63488;48.092;-1.640;2023-05-07T08:02:10;6.28;;;4.78;;
74926;SDS011;63488;48.092;-1.640;2023-05-07T08:04:35;6.55;;;4.85;;
74926;SDS011;63488;48.092;-1.640;2023-05-07T08:07:02;6.80;;;5.30;;
74926;SDS011;63488;48.092;-1.640;2023-05-07T08:09:27;7.70;;;5.15;;
74926;SDS011;63488;48.092;-1.640;2023-05-07T08:11:53;7.57;;;5.30;;
74926;SDS011;63488;48.092;-1.640;2023-05-07T08:14:18;7.03;;;4.90;;
74926;SDS011;63488;48.092;-1.640;2023-05-07T08:16:43;7.07;;;4.60;;
74926;SDS011;63488;48.092;-1.640;2023-05-07T08:19:09;6.18;;;4.78;;
74926;SDS011;63488;48.092;-1.640;2023-05-07T08:21:38;6.93;;;4.40;;
74926;SDS011;63488;48.092;-1.640;2023-05-07T08:24:03;9.18;;;4.88;;
74926;SDS011;63488;48.092;-1.640;2023-05-07T08:26:29;9.48;;;4.60;;
74926;SDS011;63488;48.092;-1.640;2023-05-07T08:28:54;6.88;;;5.10;;
74926;SDS011;63488;48.092;-1.640;2023-05-07T08:31:19;5.72;;;4.00;;
74926;SDS011;63488;48.092;-1.640;2023-05-07T08:33:45;6.40;;;4.22;;
74926;SDS011;63488;48.092;-1.640;2023-05-07T08:36:10;5.78;;;4.00;;
74926;SDS011;63488;48.092;-1.640;2023-05-07T08:38:35;5.38;;;3.78;;
74926;SDS011;63488;48.092;-1.640;2023-05-07T08:41:01;5.22;;;3.40;;
74926;SDS011;63488;48.092;-1.640;2023-05-07T08:43:27;5.78;;;3.42;;
74926;SDS011;63488;48.092;-1.640;2023-05-07T08:45:53;4.07;;;2.97;;
74926;SDS011;63488;48.092;-1.640;2023-05-07T08:48:19;5.70;;;3.22;;
74926;SDS011;63488;48.092;-1.640;2023-05-07T08:50:46;5.65;;;3.70;;
74926;SDS011;63488;48.092;-1.640;2023-05-07T08:53:12;5.68;;;3.80;;
74926;SDS011;63488;48.092;-1.640;2023-05-07T08:55:37;6.28;;;4.25;;
74926;SDS011;63488;48.092;-1.640;2023-05-07T08:58:03;6.68;;;3.88;;
74926;SDS011;63488;48.092;-1.640;2023-05-07T09:00:28;6.53;;;4.50;;
74926;SDS011;63488;48.092;-1.640;2023-05-07T09:02:54;6.70;;;4.10;;
74926;SDS011;63488;48.092;-1.640;2023-05-07T09:05:19;5.72;;;4.20;;
74926;SDS011;63488;48.092;-1.640;2023-05-07T09:07:45;6.10;;;3.60;;
74926;SDS011;63488;48.092;-1.640;2023-05-07T09:10:11;5.45;;;3.90;;
74926;SDS011;63488;48.092;-1.640;2023-05-07T09:12:36;5.03;;;3.45;;
74926;SDS011;63488;48.092;-1.640;2023-05-07T09:15:03;4.78;;;3.53;;
74926;SDS011;63488;48.092;-1.640;2023-05-07T09:17:28;5.40;;;3.47;;
74926;SDS011;63488;48.092;-1.640;2023-05-07T09:19:54;6.13;;;3.67;;
74926;SDS011;63488;48.092;-1.640;2023-05-07T09:22:19;5.03;;;3.55;;
74926;SDS011;63488;48.092;-1.640;2023-05-07T09:24:49;5.57;;;3.22;;
74926;SDS011;63488;48.092;-1.640;2023-05-07T09:27:14;4.93;;;3.40;;
74926;SDS011;63488;48.092;-1.640;2023-05-07T09:29:40;4.38;;;3.10;;
74926;SDS011;63488;48.092;-1.640;2023-05-07T09:32:06;3.85;;;2.88;;
74926;SDS011;63488;48.092;-1.640;2023-05-07T09:34:31;4.97;;;3.90;;
74926;SDS011;63488;48.092;-1.640;2023-05-07T09:37:03;4.57;;;3.20;;
74926;SDS011;63488;48.092;-1.640;2023-05-07T09:39:47;4.80;;;3.00;;
74926;SDS011;63488;48.092;-1.640;2023-05-07T09:42:13;4.10;;;3.15;;
74926;SDS011;63488;48.092;-1.640;2023-05-07T09:44:40;4.88;;;3.58;;
74926;SDS011;63488;48.092;-1.640;2023-05-07T09:47:06;5.45;;;3.47;;
74926;SDS011;63488;48.092;-1.640;2023-05-07T09:49:33;4.85;;;2.88;;
74926;SDS011;63488;48.092;-1.640;2023-05-07T09:51:59;3.80;;;2.65;;
74926;SDS011;63488;48.092;-1.640;2023-05-07T09:54:25;4.25;;;2.40;;
74926;SDS011;63488;48.092;-1.640;2023-05-07T09:56:51;4.03;;;2.70;;
74926;SDS011;63488;48.092;-1.640;2023-05-07T09:59:17;3.42;;;2.80;;
74926;SDS011;63488;48.092;-1.640;2023-05-07T10:01:42;3.35;;;2.42;;
74926;SDS011;63488;48.092;-1.640;2023-05-07T10:04:08;4.32;;;3.00;;
74926;SDS011;63488;48.092;-1.640;2023-05-07T10:06:34;4.90;;;3.30;;
74926;SDS011;63488;48.092;-1.640;2023-05-07T10:09:00;4.43;;;3.33;;
74926;SDS011;63488;48.092;-1.640;2023-05-07T10:11:26;4.10;;;2.50;;
74926;SDS011;63488;48.092;-1.640;2023-05-07T10:13:52;3.13;;;2.05;;
74926;SDS011;63488;48.092;-1.640;2023-05-07T10:16:17;3.90;;;2.53;;
74926;SDS011;63488;48.092;-1.640;2023-05-07T10:18:43;3.13;;;2.40;;
74926;SDS011;63488;48.092;-1.640;2023-05-07T10:21:11;3.85;;;2.10;;
74926;SDS011;63488;48.092;-1.640;2023-05-07T10:23:40;4.25;;;2.30;;
74926;SDS011;63488;48.092;-1.640;2023-05-07T10:26:06;3.22;;;2.25;;
74926;SDS011;63488;48.092;-1.640;2023-05-07T10:28:34;3.67;;;2.45;;
74926;SDS011;63488;48.092;-1.640;2023-05-07T10:33:33;3.35;;;2.25;;
74926;SDS011;63488;48.092;-1.640;2023-05-07T10:35:59;2.83;;;2.10;;
74926;SDS011;63488;48.092;-1.640;2023-05-07T10:38:25;3.08;;;2.10;;
74926;SDS011;63488;48.092;-1.640;2023-05-07T10:40:51;3.05;;;2.00;;
74926;SDS011;63488;48.092;-1.640;2023-05-07T10:43:17;4.68;;;2.42;;
74926;SDS011;63488;48.092;-1.640;2023-05-07T10:45:43;3.92;;;2.20;;
74926;SDS011;63488;48.092;-1.640;2023-05-07T10:48:12;2.75;;;2.10;;
74926;SDS011;63488;48.092;-1.640;2023-05-07T10:50:38;2.95;;;1.92;;
74926;SDS011;63488;48.092;-1.640;2023-05-07T10:55:41;3.00;;;2.00;;
74926;SDS011;63488;48.092;-1.640;2023-05-07T10:58:25;4.40;;;2.65;;
74926;SDS011;63488;48.092;-1.640;2023-05-07T11:00:56;4.15;;;3.10;;
74926;SDS011;63488;48.092;-1.640;2023-05-07T11:03:21;4.10;;;2.63;;
74926;SDS011;63488;48.092;-1.640;2023-05-07T11:05:47;4.30;;;3.05;;
74926;SDS011;63488;48.092;-1.640;2023-05-07T11:08:14;4.43;;;2.83;;
74926;SDS011;63488;48.092;-1.640;2023-05-07T11:10:52;5.25;;;3.30;;
74926;SDS011;63488;48.092;-1.640;2023-05-07T11:13:18;5.80;;;3.92;;
74926;SDS011;63488;48.092;-1.640;2023-05-07T11:15:47;7.18;;;3.63;;
74926;SDS011;63488;48.092;-1.640;2023-05-07T11:18:16;6.35;;;3.75;;
74926;SDS011;63488;48.092;-1.640;2023-05-07T11:20:49;5.75;;;3.78;;
74926;SDS011;63488;48.092;-1.640;2023-05-07T11:26:07;5.70;;;3.55;;
74926;SDS011;63488;48.092;-1.640;2023-05-07T11:28:40;6.78;;;3.72;;
74926;SDS011;63488;48.092;-1.640;2023-05-07T11:31:05;6.13;;;3.78;;
74926;SDS011;63488;48.092;-1.640;2023-05-07T11:33:31;5.80;;;3.75;;
74926;SDS011;63488;48.092;-1.640;2023-05-07T11:35:57;6.47;;;4.20;;
74926;SDS011;63488;48.092;-1.640;2023-05-07T11:38:22;6.20;;;3.40;;
74926;SDS011;63488;48.092;-1.640;2023-05-07T11:40:49;5.18;;;3.28;;
74926;SDS011;63488;48.092;-1.640;2023-05-07T11:43:14;5.95;;;3.50;;
74926;SDS011;63488;48.092;-1.640;2023-05-07T11:45:40;6.18;;;4.32;;
74926;SDS011;63488;48.092;-1.640;2023-05-07T11:48:05;7.30;;;4.32;;
74926;SDS011;63488;48.092;-1.640;2023-05-07T11:50:30;6.53;;;3.92;;
74926;SDS011;63488;48.092;-1.640;2023-05-07T11:52:56;4.72;;;3.05;;
74926;SDS011;63488;48.092;-1.640;2023-05-07T11:55:21;4.30;;;2.90;;
74926;SDS011;63488;48.092;-1.640;2023-05-07T11:57:49;5.05;;;3.05;;
74926;SDS011;63488;48.092;-1.640;2023-05-07T12:00:15;7.13;;;3.47;;
74926;SDS011;63488;48.092;-1.640;2023-05-07T12:02:41;5.22;;;2.75;;
74926;SDS011;63488;48.092;-1.640;2023-05-07T12:05:07;4.78;;;2.72;;
74926;SDS011;63488;48.092;-1.640;2023-05-07T12:07:35;6.53;;;3.50;;
74926;SDS011;63488;48.092;-1.640;2023-05-07T12:10:07;5.03;;;2.80;;
74926;SDS011;63488;48.092;-1.640;2023-05-07T12:12:41;6.43;;;3.70;;
74926;SDS011;63488;48.092;-1.640;2023-05-07T12:15:10;7.88;;;3.78;;
74926;SDS011;63488;48.092;-1.640;2023-05-07T12:17:36;6.38;;;3.78;;
74926;SDS011;63488;48.092;-1.640;2023-05-07T12:20:01;8.15;;;3.78;;
74926;SDS011;63488;48.092;-1.640;2023-05-07T12:22:27;8.70;;;3.53;;
74926;SDS011;63488;48.092;-1.640;2023-05-07T12:24:56;8.43;;;3.92;;
74926;SDS011;63488;48.092;-1.640;2023-05-07T12:27:22;7.20;;;3.70;;
74926;SDS011;63488;48.092;-1.640;2023-05-07T12:29:48;5.30;;;3.17;;
74926;SDS011;63488;48.092;-1.640;2023-05-07T12:32:16;6.60;;;3.47;;
74926;SDS011;63488;48.092;-1.640;2023-05-07T12:34:42;7.03;;;3.42;;
74926;SDS011;63488;48.092;-1.640;2023-05-07T12:37:08;10.18;;;3.13;;
74926;SDS011;63488;48.092;-1.640;2023-05-07T12:39:33;8.48;;;3.58;;
74926;SDS011;63488;48.092;-1.640;2023-05-07T12:41:59;5.63;;;3.15;;
74926;SDS011;63488;48.092;-1.640;2023-05-07T12:44:25;7.32;;;3.53;;
74926;SDS011;63488;48.092;-1.640;2023-05-07T12:46:51;7.72;;;3.28;;
74926;SDS011;63488;48.092;-1.640;2023-05-07T12:49:16;8.52;;;3.10;;
74926;SDS011;63488;48.092;-1.640;2023-05-07T12:51:43;9.98;;;2.75;;
74926;SDS011;63488;48.092;-1.640;2023-05-07T12:54:08;6.10;;;2.90;;
74926;SDS011;63488;48.092;-1.640;2023-05-07T12:56:37;5.90;;;2.90;;
74926;SDS011;63488;48.092;-1.640;2023-05-07T12:59:02;9.63;;;3.55;;
74926;SDS011;63488;48.092;-1.640;2023-05-07T13:01:29;7.13;;;3.10;;
74926;SDS011;63488;48.092;-1.640;2023-05-07T13:03:54;13.07;;;3.50;;
74926;SDS011;63488;48.092;-1.640;2023-05-07T13:06:20;7.65;;;2.90;;
74926;SDS011;63488;48.092;-1.640;2023-05-07T13:08:45;7.20;;;3.15;;
74926;SDS011;63488;48.092;-1.640;2023-05-07T13:11:11;8.13;;;3.13;;
74926;SDS011;63488;48.092;-1.640;2023-05-07T13:13:37;9.18;;;3.42;;
74926;SDS011;63488;48.092;-1.640;2023-05-07T13:16:03;9.63;;;3.58;;
74926;SDS011;63488;48.092;-1.640;2023-05-07T13:18:29;8.07;;;2.88;;
74926;SDS011;63488;48.092;-1.640;2023-05-07T13:20:54;8.25;;;2.70;;
74926;SDS011;63488;48.092;-1.640;2023-05-07T13:23:20;7.20;;;2.75;;
74926;SDS011;63488;48.092;-1.640;2023-05-07T13:25:45;7.35;;;2.67;;
74926;SDS011;63488;48.092;-1.640;2023-05-07T13:28:10;6.65;;;2.38;;
74926;SDS011;63488;48.092;-1.640;2023-05-07T13:30:36;6.45;;;2.38;;
74926;SDS011;63488;48.092;-1.640;2023-05-07T13:33:01;5.88;;;2.40;;
74926;SDS011;63488;48.092;-1.640;2023-05-07T13:35:27;7.97;;;2.50;;
74926;SDS011;63488;48.092;-1.640;2023-05-07T13:37:52;9.15;;;2.50;;
74926;SDS011;63488;48.092;-1.640;2023-05-07T13:40:19;8.45;;;4.45;;
74926;SDS011;63488;48.092;-1.640;2023-05-07T13:42:44;5.75;;;2.33;;
74926;SDS011;63488;48.092;-1.640;2023-05-07T13:45:10;4.53;;;2.25;;
74926;SDS011;63488;48.092;-1.640;2023-05-07T13:47:35;5.82;;;2.50;;
74926;SDS011;63488;48.092;-1.640;2023-05-07T13:50:01;4.32;;;2.08;;
74926;SDS011;63488;48.092;-1.640;2023-05-07T13:52:26;3.97;;;1.60;;
74926;SDS011;63488;48.092;-1.640;2023-05-07T13:54:51;5.43;;;1.90;;
74926;SDS011;63488;48.092;-1.640;2023-05-07T13:57:17;3.38;;;1.77;;
74926;SDS011;63488;48.092;-1.640;2023-05-07T13:59:43;4.20;;;1.75;;
74926;SDS011;63488;48.092;-1.640;2023-05-07T14:02:08;5.53;;;2.17;;
74926;SDS011;63488;48.092;-1.640;2023-05-07T14:04:34;3.83;;;1.77;;
74926;SDS011;63488;48.092;-1.640;2023-05-07T14:07:00;5.88;;;3.17;;
74926;SDS011;63488;48.092;-1.640;2023-05-07T14:09:25;4.30;;;2.08;;
74926;SDS011;63488;48.092;-1.640;2023-05-07T14:11:50;2.47;;;1.30;;
74926;SDS011;63488;48.092;-1.640;2023-05-07T14:14:19;4.50;;;1.38;;
74926;SDS011;63488;48.092;-1.640;2023-05-07T14:16:44;2.55;;;1.58;;
74926;SDS011;63488;48.092;-1.640;2023-05-07T14:19:10;3.65;;;1.45;;
74926;SDS011;63488;48.092;-1.640;2023-05-07T14:21:35;2.45;;;1.30;;
74926;SDS011;63488;48.092;-1.640;2023-05-07T14:24:01;3.80;;;1.70;;
74926;SDS011;63488;48.092;-1.640;2023-05-07T14:26:26;3.72;;;2.05;;
74926;SDS011;63488;48.092;-1.640;2023-05-07T14:28:52;2.17;;;1.25;;
74926;SDS011;63488;48.092;-1.640;2023-05-07T14:31:20;2.85;;;1.38;;
74926;SDS011;63488;48.092;-1.640;2023-05-07T14:33:45;2.53;;;1.67;;